Mackenzie Airport
CYZY : rendu visible

Aérodrome :











RETROUVEZ-NOUS SUR...

 
LOGIN :

S'inscrire | Disclaimer

   EN    FR    IT 

 









Légende :    VFR   VFR Marginal   IFR   IFR Intensif   IFR Très Intensif
Visi : 
Plafond : 
>= 8 km
>= 3000ft
5 à 8 km
1000 à 3000 ft
1500m à 5 km
500 à 1000 ft
800 à 1500m
200 à 500 ft
< 800m
< 200 ft
Symboles :   Orages  Brouillard  Fortes neiges  Fortes précipitations  Vent > 20 kt






- Altitude de l'aérodrome : 2264 ft
- Code IATA : YZY


CYZY - Mackenzie

DERNIER METAR :
  • 310506Z AUTO 17004KT 6SM -RA BR FEW017 SCT026 BKN035 OVC044 14/13 A2966 RMK SLP054 DENSITY ALT 2900FT

METARs EXPIRÉS :
  • 310459Z AUTO 16005KT 2SM -RA BR SCT017 BKN026 BKN035 OVC044 14/13 A2966 RMK SLP055 DENSITY ALT 2900FT
  • 310451Z AUTO 16007KT 2SM +RA BR FEW019 SCT024 BKN037 OVC044 14/13 A2966 RMK SLP055 DENSITY ALT 2900FT
  • 310432Z AUTO 13004KT 110V190 5SM -RA BR OVC024 14/13 A2966 RMK SLP054 DENSITY ALT 2900FT
  • 310400Z AUTO 22003KT 170V230 9SM -RA BKN028 BKN035 BKN065 OVC075 14/13 A2965 RMK LTNG DIST SW SLP052 DENSITY ALT 3000FT
  • 310300Z AUTO 15008KT 080V170 9SM -RA FEW042 SCT060 BKN074 OVC100 16/12 A2965 RMK SLP052 DENSITY ALT 3200FT

TAF AMD TAF CYZY
Valide du 31 à 02h jusqu'au 31 à 09h UTC


310217Z 3102/3109 VRB03KT P6SM SCT060 BKN100
TEMPO 3102/3105 VRB15G25KT 5SM -TSRA BR BKN060CB
FM310500 20005KT P6SM -SHRA OVC040
TEMPO 3105/3109 3SM SHRA BR FEW008 OVC020 RMK FCST BASED ON AUTO OBS. NXT FCST BY 310700Z
FIR CZVR / Amérique du Nord



MET'MAP, la Météo Aéronautique d'un coup d'oeil ! - Copyright ORBIFLY Décembre 2007 - Disclaimer

ORBIFLY MET'MAP TEAM :

Programmation & Développement : Alexandra Zaïnal
Sur une idée originale de : Baudouin d'Aumeries
Assistance à la programmation : Marc-Olivier Méhu
Soutien technique & logistique : Manuel Goepfert

Contact : metmap@orbifly.com




SOURCES & CREDITS :

   NOAA       Earth
Advisory